createdAt,value
2023-04-07T00:01:31.376Z,99123.44
2023-04-07T00:04:34.677Z,99124.55
2023-04-07T00:07:48.538Z,99123.59
2023-04-07T00:10:58.578Z,99120.20
2023-04-07T00:14:01.313Z,99120.18
2023-04-07T00:17:04.123Z,99120.63
2023-04-07T00:20:07.918Z,99120.19
2023-04-07T00:23:10.716Z,99116.13
2023-04-07T00:26:13.809Z,99113.57
2023-04-07T00:29:17.906Z,99110.95
2023-04-07T00:32:21.219Z,99112.36
2023-04-07T00:35:24.046Z,99106.30
2023-04-07T00:38:27.247Z,99105.72
2023-04-07T00:41:30.151Z,99100.35
2023-04-07T00:44:33.929Z,99102.90
2023-04-07T00:47:36.920Z,99098.20
2023-04-07T00:50:39.816Z,99097.41
2023-04-07T00:53:42.880Z,99096.45
2023-04-07T00:56:46.163Z,99093.42
2023-04-07T00:59:50.622Z,99088.50
2023-04-07T01:03:06.413Z,99089.43
2023-04-07T01:06:16.122Z,99091.09
2023-04-07T01:09:46.765Z,99080.71
2023-04-07T01:13:18.935Z,99088.97
2023-04-07T01:16:24.511Z,99091.58
2023-04-07T01:19:40.006Z,99083.52
2023-04-07T01:22:58.355Z,99085.61
2023-04-07T01:26:20.063Z,99080.57
2023-04-07T01:29:37.270Z,99074.27
2023-04-07T01:32:41.637Z,99072.05
2023-04-07T01:35:46.481Z,99074.73
2023-04-07T01:38:51.544Z,99072.52
2023-04-07T01:41:55.696Z,99067.75
2023-04-07T01:45:00.570Z,99071.16
2023-04-07T01:48:07.735Z,99067.27
2023-04-07T01:51:14.660Z,99066.06
2023-04-07T01:54:18.184Z,99060.70
2023-04-07T01:57:20.970Z,99060.50
2023-04-07T02:00:26.887Z,99061.25
2023-04-07T02:03:49.190Z,99060.80
2023-04-07T02:06:56.461Z,99056.41
2023-04-07T02:10:11.998Z,99053.62
2023-04-07T02:13:18.535Z,99057.21
2023-04-07T02:16:24.383Z,99055.29
2023-04-07T02:19:28.126Z,99052.20
2023-04-07T02:22:32.001Z,99055.20
2023-04-07T02:25:35.427Z,99054.45
2023-04-07T02:28:38.198Z,99053.83
2023-04-07T02:31:41.061Z,99050.90
2023-04-07T02:34:44.100Z,99050.64
2023-04-07T02:37:47.261Z,99042.48
2023-04-07T02:40:50.016Z,99040.19
2023-04-07T02:43:53.701Z,99040.14
2023-04-07T02:46:56.781Z,99041.07
2023-04-07T02:49:59.559Z,99046.45
2023-04-07T02:53:02.271Z,99047.95
2023-04-07T02:56:06.013Z,99054.28
2023-04-07T02:59:08.804Z,99052.98
2023-04-07T03:02:15.562Z,99046.36
2023-04-07T03:05:18.776Z,99053.92
2023-04-07T03:08:21.800Z,99045.32
2023-04-07T03:11:25.243Z,99042.53
2023-04-07T03:14:28.622Z,99044.13
2023-04-07T03:17:31.688Z,99053.27
2023-04-07T03:20:34.514Z,99053.14
2023-04-07T03:23:41.330Z,99049.65
2023-04-07T03:26:44.162Z,99041.77
2023-04-07T03:29:54.202Z,99039.80
2023-04-07T03:32:57.355Z,99041.07
2023-04-07T03:36:00.565Z,99040.95
2023-04-07T03:39:04.387Z,99045.14
2023-04-07T03:42:07.410Z,99039.58
2023-04-07T03:45:10.549Z,99030.45
2023-04-07T03:48:15.866Z,99032.88
2023-04-07T03:51:27.954Z,99031.11
2023-04-07T03:54:31.926Z,99034.11
2023-04-07T03:57:34.736Z,99032.05
2023-04-07T04:00:39.193Z,99033.38
2023-04-07T04:03:47.094Z,99031.39
2023-04-07T04:07:01.010Z,99033.96
2023-04-07T04:10:26.110Z,99028.60
2023-04-07T04:13:29.690Z,99029.52
2023-04-07T04:16:32.858Z,99029.56
2023-04-07T04:19:38.703Z,99028.98
2023-04-07T04:22:48.498Z,99030.03
2023-04-07T04:25:51.773Z,99033.96
2023-04-07T04:28:54.653Z,99033.80
2023-04-07T04:31:57.828Z,99034.17
2023-04-07T04:35:02.210Z,99035.63
2023-04-07T04:38:07.333Z,99034.54
2023-04-07T04:41:10.547Z,99033.85
2023-04-07T04:44:13.469Z,99035.05
2023-04-07T04:47:17.787Z,99038.89
2023-04-07T04:50:22.016Z,99042.93
2023-04-07T04:53:29.000Z,99040.80
2023-04-07T04:56:34.156Z,99039.83
2023-04-07T04:59:36.952Z,99039.57
2023-04-07T05:02:40.678Z,99040.73
2023-04-07T05:05:48.650Z,99041.52
2023-04-07T05:08:52.452Z,99044.98
2023-04-07T05:11:58.378Z,99049.16
2023-04-07T05:15:01.748Z,99046.33
2023-04-07T05:18:04.772Z,99043.40
2023-04-07T05:21:07.699Z,99045.90
2023-04-07T05:24:12.164Z,99045.91
2023-04-07T05:27:15.439Z,99046.21
2023-04-07T05:30:18.508Z,99049.05
2023-04-07T05:33:21.626Z,99049.23
2023-04-07T05:36:28.217Z,99042.17
2023-04-07T05:39:32.820Z,99044.35
2023-04-07T05:42:39.869Z,99045.58
2023-04-07T05:45:44.055Z,99047.30
2023-04-07T05:48:47.274Z,99052.26
2023-04-07T05:51:50.907Z,99055.31
2023-04-07T05:54:53.820Z,99053.39
2023-04-07T05:57:58.158Z,99050.11
2023-04-07T06:01:03.519Z,99051.58
2023-04-07T06:04:06.479Z,99050.67
2023-04-07T06:07:09.576Z,99045.95
2023-04-07T06:10:12.336Z,99044.87
2023-04-07T06:13:15.161Z,99041.50
2023-04-07T06:16:19.682Z,99048.21
2023-04-07T06:19:22.791Z,99045.41
2023-04-07T06:22:25.567Z,99041.89
2023-04-07T06:25:28.378Z,99043.38
2023-04-07T06:28:31.453Z,99046.18
2023-04-07T06:31:35.067Z,99045.57
2023-04-07T06:34:38.001Z,99045.92
2023-04-07T06:37:41.088Z,99045.66
2023-04-07T06:40:43.942Z,99040.00
2023-04-07T06:43:51.449Z,99039.57
2023-04-07T06:46:55.575Z,99041.55
2023-04-07T06:49:58.493Z,99044.40
2023-04-07T06:53:01.366Z,99045.66
2023-04-07T06:56:11.978Z,99039.15
2023-04-07T06:59:14.937Z,99042.36
2023-04-07T07:02:17.828Z,99042.70
2023-04-07T07:05:21.058Z,99041.66
2023-04-07T07:08:24.760Z,99043.80
2023-04-07T07:11:27.480Z,99047.19
2023-04-07T07:14:30.259Z,99046.09
2023-04-07T07:17:33.077Z,99042.54
2023-04-07T07:20:35.859Z,99046.35
2023-04-07T07:23:38.571Z,99039.98
2023-04-07T07:26:42.926Z,99042.77
2023-04-07T07:29:46.922Z,99043.63
2023-04-07T07:32:50.783Z,99041.35
2023-04-07T07:35:53.588Z,99040.84
2023-04-07T07:38:56.467Z,99047.27
2023-04-07T07:41:59.175Z,99044.36
2023-04-07T07:45:02.096Z,99043.84
2023-04-07T07:48:04.908Z,99040.53
2023-04-07T07:51:07.714Z,99042.93
2023-04-07T07:54:10.431Z,99048.36
2023-04-07T07:57:13.292Z,99047.63
2023-04-07T08:00:16.215Z,99048.29
2023-04-07T08:03:20.176Z,99050.08
2023-04-07T08:06:23.454Z,99052.88
2023-04-07T08:09:26.277Z,99048.01
2023-04-07T08:12:29.079Z,99053.20
2023-04-07T08:15:32.028Z,99053.49
2023-04-07T08:18:34.815Z,99051.58
2023-04-07T08:21:37.720Z,99053.96
2023-04-07T08:24:41.602Z,99058.43
2023-04-07T08:27:44.392Z,99055.07
2023-04-07T08:30:47.298Z,99055.08
2023-04-07T08:33:54.193Z,99051.89
2023-04-07T08:36:57.283Z,99052.42
2023-04-07T08:40:00.954Z,99049.98
2023-04-07T08:43:09.970Z,99058.45
2023-04-07T08:46:14.644Z,99057.21
2023-04-07T08:49:18.637Z,99062.11
2023-04-07T08:52:23.597Z,99061.57
2023-04-07T08:55:26.879Z,99054.00
2023-04-07T08:58:30.251Z,99051.95
2023-04-07T09:01:35.598Z,99057.07
2023-04-07T09:04:38.707Z,99054.23
2023-04-07T09:07:43.355Z,99047.05
2023-04-07T09:10:46.698Z,99047.86
2023-04-07T09:13:51.254Z,99047.48
2023-04-07T09:16:56.795Z,99042.97
2023-04-07T09:20:01.585Z,99040.54
2023-04-07T09:23:04.469Z,99042.94
2023-04-07T09:26:28.320Z,99039.50
2023-04-07T09:29:31.378Z,99040.70
2023-04-07T09:32:39.090Z,99038.95
2023-04-07T09:35:53.558Z,99031.79
2023-04-07T09:38:56.353Z,99029.34
2023-04-07T09:41:59.648Z,99039.09
2023-04-07T09:45:03.570Z,99047.45
2023-04-07T09:48:08.842Z,99028.48
2023-04-07T09:51:17.883Z,99031.57
2023-04-07T09:54:41.366Z,99032.66
2023-04-07T09:57:45.483Z,99032.21
2023-04-07T10:00:49.419Z,99042.45
2023-04-07T10:03:53.016Z,99050.18
2023-04-07T10:06:57.755Z,99039.79
2023-04-07T10:10:00.676Z,99042.17
2023-04-07T10:13:06.353Z,99044.30
2023-04-07T10:16:09.187Z,99047.61
2023-04-07T10:19:13.178Z,99041.80
2023-04-07T10:22:17.582Z,99041.15
2023-04-07T10:25:23.971Z,99036.58
2023-04-07T10:28:31.084Z,99038.27
2023-04-07T10:31:34.684Z,99038.67
2023-04-07T10:34:55.940Z,99039.15
2023-04-07T10:38:07.994Z,99039.64
2023-04-07T10:41:41.481Z,99032.45
2023-04-07T10:44:49.816Z,99029.79
2023-04-07T10:47:58.928Z,99034.02
2023-04-07T10:51:05.149Z,99033.43
2023-04-07T10:54:21.218Z,99036.64
2023-04-07T10:57:24.404Z,99035.27
2023-04-07T11:00:27.496Z,99037.23
2023-04-07T11:03:36.411Z,99042.06
2023-04-07T11:06:48.249Z,99033.77
2023-04-07T11:09:51.221Z,99038.56
2023-04-07T11:13:05.272Z,99042.60
2023-04-07T11:16:08.873Z,99043.69
2023-04-07T11:19:11.865Z,99039.75
2023-04-07T11:22:26.700Z,99035.60
2023-04-07T11:25:33.366Z,99035.00
2023-04-07T11:28:53.798Z,99034.34
2023-04-07T11:31:59.357Z,99034.41
2023-04-07T11:35:06.938Z,99036.96
2023-04-07T11:38:09.692Z,99036.63
2023-04-07T11:41:15.628Z,99036.73
2023-04-07T11:44:18.806Z,99038.56
2023-04-07T11:47:21.629Z,99037.08
2023-04-07T11:50:42.921Z,99044.10
2023-04-07T11:53:47.647Z,99036.84
2023-04-07T11:56:55.377Z,99040.06
2023-04-07T12:00:08.786Z,99037.98
2023-04-07T12:03:16.366Z,99036.45
2023-04-07T12:06:38.703Z,99036.22
2023-04-07T12:09:41.657Z,99032.95
2023-04-07T12:12:46.364Z,99037.20
2023-04-07T12:15:49.154Z,99037.28
2023-04-07T12:18:53.302Z,99037.36
2023-04-07T12:21:57.335Z,99036.52
2023-04-07T12:25:00.048Z,99037.11
2023-04-07T12:28:02.907Z,99039.10
2023-04-07T12:31:05.710Z,99041.48
2023-04-07T12:34:08.472Z,99040.65
2023-04-07T12:37:11.231Z,99039.81
2023-04-07T12:40:15.961Z,99041.41
2023-04-07T12:43:19.094Z,99045.05
2023-04-07T12:46:22.043Z,99041.42
2023-04-07T12:49:24.932Z,99037.94
2023-04-07T12:52:28.119Z,99036.63
2023-04-07T12:55:33.637Z,99034.38
2023-04-07T12:58:36.617Z,99036.11
2023-04-07T13:01:39.963Z,99036.97
2023-04-07T13:04:46.588Z,99037.02
2023-04-07T13:07:49.958Z,99035.02
2023-04-07T13:10:52.964Z,99036.61
2023-04-07T13:13:57.399Z,99035.48
2023-04-07T13:17:01.625Z,99038.05
2023-04-07T13:20:06.754Z,99038.16
2023-04-07T13:23:10.257Z,99039.35
2023-04-07T13:26:13.324Z,99040.18
2023-04-07T13:29:17.000Z,99038.40
2023-04-07T13:32:19.846Z,99044.48
2023-04-07T13:35:22.813Z,99039.70
2023-04-07T13:38:25.532Z,99038.64
2023-04-07T13:41:28.339Z,99044.02
2023-04-07T13:44:31.071Z,99041.05
2023-04-07T13:47:34.659Z,99041.40
2023-04-07T13:50:39.310Z,99035.05
2023-04-07T13:53:42.058Z,99038.02
2023-04-07T13:56:45.036Z,99037.34
2023-04-07T13:59:52.081Z,99035.92
2023-04-07T14:02:58.371Z,99034.41
2023-04-07T14:06:02.539Z,99028.52
2023-04-07T14:09:06.496Z,99027.95
2023-04-07T14:12:09.799Z,99029.67
2023-04-07T14:15:12.622Z,99024.89
2023-04-07T14:18:15.653Z,99025.05
2023-04-07T14:21:18.647Z,99024.20
2023-04-07T14:24:21.789Z,99025.58
2023-04-07T14:27:24.504Z,99028.48
2023-04-07T14:30:27.737Z,99039.59
2023-04-07T14:33:30.842Z,99044.73
2023-04-07T14:36:34.430Z,99047.72
2023-04-07T14:39:37.338Z,99045.05
2023-04-07T14:42:40.116Z,99046.04
2023-04-07T14:45:42.850Z,99045.39
2023-04-07T14:48:47.283Z,99045.64
2023-04-07T14:51:50.166Z,99043.77
2023-04-07T14:54:54.109Z,99046.77
2023-04-07T14:57:57.180Z,99053.83
2023-04-07T15:01:02.814Z,99056.35
2023-04-07T15:04:07.488Z,99056.58
2023-04-07T15:07:10.420Z,99057.25
2023-04-07T15:10:13.197Z,99058.67
2023-04-07T15:13:16.160Z,99064.60
2023-04-07T15:16:20.214Z,99061.58
2023-04-07T15:19:23.410Z,99062.05
2023-04-07T15:22:26.214Z,99063.63
2023-04-07T15:25:29.104Z,99063.17
2023-04-07T15:28:32.056Z,99066.59
2023-04-07T15:31:34.887Z,99073.03
2023-04-07T15:34:37.682Z,99069.96
2023-04-07T15:37:40.415Z,99075.39
2023-04-07T15:40:43.244Z,99079.05
2023-04-07T15:43:46.472Z,99086.78
2023-04-07T15:46:49.642Z,99094.93
2023-04-07T15:49:52.562Z,99096.55
2023-04-07T15:52:55.529Z,99096.96
2023-04-07T15:55:58.398Z,99104.73
2023-04-07T15:59:01.351Z,99109.21
2023-04-07T16:02:04.236Z,99116.88
2023-04-07T16:05:08.241Z,99119.89
2023-04-07T16:08:13.614Z,99128.67
2023-04-07T16:11:16.804Z,99140.82
2023-04-07T16:14:19.651Z,99140.13
2023-04-07T16:17:22.787Z,99153.87
2023-04-07T16:20:25.938Z,99155.71
2023-04-07T16:23:28.704Z,99153.52
2023-04-07T16:26:31.898Z,99156.34
2023-04-07T16:29:34.658Z,99153.30
2023-04-07T16:32:37.569Z,99157.83
2023-04-07T16:35:40.580Z,99162.61
2023-04-07T16:38:43.630Z,99164.02
2023-04-07T16:41:46.392Z,99163.92
2023-04-07T16:44:49.126Z,99169.16
2023-04-07T16:47:52.317Z,99171.95
2023-04-07T16:50:55.427Z,99176.10
2023-04-07T16:53:58.507Z,99179.23
2023-04-07T16:57:01.532Z,99185.62
2023-04-07T17:00:05.933Z,99189.98
2023-04-07T17:03:08.749Z,99194.25
2023-04-07T17:06:11.901Z,99207.89
2023-04-07T17:09:17.641Z,99216.35
2023-04-07T17:12:20.612Z,99221.86
2023-04-07T17:15:24.050Z,99224.11
2023-04-07T17:18:26.799Z,99220.95
2023-04-07T17:21:29.797Z,99229.24
2023-04-07T17:24:32.770Z,99237.31
2023-04-07T17:27:36.072Z,99242.27
2023-04-07T17:30:39.106Z,99245.77
2023-04-07T17:33:42.075Z,99247.35
2023-04-07T17:36:44.826Z,99252.15
2023-04-07T17:39:47.724Z,99255.90
2023-04-07T17:42:50.604Z,99257.10
2023-04-07T17:45:53.746Z,99258.85
2023-04-07T17:48:59.866Z,99267.78
2023-04-07T17:52:02.898Z,99276.06
2023-04-07T17:55:07.951Z,99277.97
2023-04-07T17:58:11.690Z,99275.08
2023-04-07T18:01:15.709Z,99279.00
2023-04-07T18:04:18.723Z,99283.79
2023-04-07T18:07:22.544Z,99288.15
2023-04-07T18:10:26.321Z,99292.68
2023-04-07T18:13:29.377Z,99297.69
2023-04-07T18:16:32.224Z,99299.92
2023-04-07T18:19:35.551Z,99303.24
2023-04-07T18:22:38.490Z,99308.64
2023-04-07T18:25:41.794Z,99308.42
2023-04-07T18:28:44.985Z,99312.13
2023-04-07T18:31:47.926Z,99315.83
2023-04-07T18:34:53.717Z,99317.79
2023-04-07T18:37:59.077Z,99321.81
2023-04-07T18:41:02.691Z,99323.71
2023-04-07T18:44:05.620Z,99321.53
2023-04-07T18:47:08.588Z,99321.14
2023-04-07T18:50:12.067Z,99329.59
2023-04-07T18:53:15.802Z,99343.90
2023-04-07T18:56:20.536Z,99341.98
2023-04-07T18:59:24.045Z,99348.67
2023-04-07T19:02:27.010Z,99350.73
2023-04-07T19:05:30.762Z,99355.67
2023-04-07T19:08:35.828Z,99358.83
2023-04-07T19:11:38.871Z,99361.09
2023-04-07T19:14:42.055Z,99363.01
2023-04-07T19:17:45.553Z,99368.45
2023-04-07T19:20:48.706Z,99372.84
2023-04-07T19:23:52.782Z,99374.63
2023-04-07T19:26:56.960Z,99379.24
2023-04-07T19:29:59.753Z,99380.77
2023-04-07T19:33:03.019Z,99387.23
2023-04-07T19:36:06.701Z,99389.96
2023-04-07T19:39:09.540Z,99394.42
2023-04-07T19:42:12.292Z,99404.39
2023-04-07T19:45:15.065Z,99402.70
2023-04-07T19:48:18.149Z,99413.10
2023-04-07T19:51:21.226Z,99417.55
2023-04-07T19:54:24.332Z,99417.57
2023-04-07T19:57:28.522Z,99423.05
2023-04-07T20:00:33.124Z,99426.67
2023-04-07T20:03:38.478Z,99433.59
2023-04-07T20:06:41.479Z,99438.75
2023-04-07T20:09:44.997Z,99443.46
2023-04-07T20:12:47.909Z,99445.61
2023-04-07T20:15:50.700Z,99449.80
2023-04-07T20:18:53.454Z,99455.51
2023-04-07T20:21:56.557Z,99458.00
2023-04-07T20:24:59.491Z,99458.70
2023-04-07T20:28:02.258Z,99457.88
2023-04-07T20:31:05.126Z,99458.41
2023-04-07T20:34:08.014Z,99460.35
2023-04-07T20:37:10.771Z,99464.86
2023-04-07T20:40:13.605Z,99467.20
2023-04-07T20:43:18.259Z,99471.77
2023-04-07T20:46:21.334Z,99471.98
2023-04-07T20:49:24.289Z,99473.94
2023-04-07T20:52:27.414Z,99473.68
2023-04-07T20:55:30.294Z,99475.46
2023-04-07T20:58:33.099Z,99482.20
2023-04-07T21:01:36.678Z,99482.10
2023-04-07T21:04:40.184Z,99482.89
2023-04-07T21:07:42.912Z,99483.53
2023-04-07T21:10:45.886Z,99484.81
2023-04-07T21:13:48.608Z,99488.84
2023-04-07T21:16:52.040Z,99489.76
2023-04-07T21:19:55.130Z,99497.52
2023-04-07T21:22:57.843Z,99495.54
2023-04-07T21:26:02.241Z,99500.64
2023-04-07T21:29:05.562Z,99504.88
2023-04-07T21:32:09.182Z,99505.92
2023-04-07T21:35:12.701Z,99500.16
2023-04-07T21:38:16.141Z,99502.84
2023-04-07T21:41:18.899Z,99502.65
2023-04-07T21:44:21.681Z,99505.91
2023-04-07T21:47:24.515Z,99507.38
2023-04-07T21:50:27.378Z,99509.81
2023-04-07T21:53:30.523Z,99512.23
2023-04-07T21:56:33.627Z,99517.25
2023-04-07T21:59:37.232Z,99518.05
2023-04-07T22:02:40.408Z,99518.88
2023-04-07T22:05:43.355Z,99515.48
2023-04-07T22:08:54.875Z,99518.15
2023-04-07T22:12:03.849Z,99515.61
2023-04-07T22:15:08.558Z,99519.16
2023-04-07T22:18:13.198Z,99520.98
2023-04-07T22:21:16.555Z,99523.95
2023-04-07T22:24:19.347Z,99523.27
2023-04-07T22:27:22.162Z,99524.02
2023-04-07T22:30:25.641Z,99527.50
2023-04-07T22:33:29.094Z,99524.70
2023-04-07T22:36:33.508Z,99531.04
2023-04-07T22:39:36.707Z,99530.35
2023-04-07T22:42:40.148Z,99533.41
2023-04-07T22:45:42.919Z,99541.60
2023-04-07T22:48:45.800Z,99544.21
2023-04-07T22:51:50.582Z,99547.55
2023-04-07T22:54:53.377Z,99549.80
2023-04-07T22:57:56.349Z,99553.36
2023-04-07T23:00:59.154Z,99557.45
2023-04-07T23:04:02.218Z,99556.55
2023-04-07T23:07:04.986Z,99562.69
2023-04-07T23:10:08.656Z,99563.92
2023-04-07T23:13:11.931Z,99568.30
2023-04-07T23:16:15.875Z,99569.86
2023-04-07T23:19:18.614Z,99573.78
2023-04-07T23:22:21.651Z,99572.84
2023-04-07T23:25:24.467Z,99571.08
2023-04-07T23:28:28.188Z,99575.83
2023-04-07T23:31:31.250Z,99575.30
2023-04-07T23:34:34.014Z,99578.14
2023-04-07T23:37:36.790Z,99578.74
2023-04-07T23:40:39.503Z,99578.01
2023-04-07T23:43:42.724Z,99577.34
2023-04-07T23:46:45.784Z,99578.86
2023-04-07T23:49:48.520Z,99583.55
2023-04-07T23:52:51.302Z,99581.61
2023-04-07T23:55:54.100Z,99584.50
2023-04-07T23:58:56.875Z,99588.84
